Terminal Aerodrome Forecast
Issued by NWS Sterling, VA

Current Version | Previous Version | Graphics & Text | Print | Product List | Glossary On
Versions: 1 2 3 4 5 6 7 8 9 10 11 12 13 14 15 16 17 18 19 20 21 22 23 24
652
FTUS41 KLWX 082202 AAA
TAFDCA
TAF AMD
KDCA 082202Z 0822/0918 10004KT P6SM -RA FEW050 BKN250
     FM090100 12006KT 5SM -RASN OVC025
     FM090500 11006KT 3SM -SN OVC015
     FM090900 09006KT 1SM -SN OVC008
     FM091200 04006KT 1/2SM SN OVC008=

USA.gov is the U.S. government's official web portal to all federal, state and local government web resources and services.